sensor_id;sensor_type;location;lat;lon;timestamp;pressure;altitude;pressure_sealevel;temperature;humidity
60437;BME280;46289;51.992;4.498;2023-12-14T00:00:01;101100.19;;;5.35;100.00
60437;BME280;46289;51.992;4.498;2023-12-14T00:02:06;101102.75;;;5.40;100.00
60437;BME280;46289;51.992;4.498;2023-12-14T00:04:13;101097.50;;;5.41;100.00
60437;BME280;46289;51.992;4.498;2023-12-14T00:06:18;101099.38;;;5.32;100.00
60437;BME280;46289;51.992;4.498;2023-12-14T00:08:23;101101.91;;;5.36;100.00
60437;BME280;46289;51.992;4.498;2023-12-14T00:10:28;101104.63;;;5.28;100.00
60437;BME280;46289;51.992;4.498;2023-12-14T00:12:33;101106.31;;;5.33;100.00
60437;BME280;46289;51.992;4.498;2023-12-14T00:14:38;101110.63;;;5.34;100.00
60437;BME280;46289;51.992;4.498;2023-12-14T00:16:43;101124.56;;;5.31;100.00
60437;BME280;46289;51.992;4.498;2023-12-14T00:18:48;101115.84;;;5.34;100.00
60437;BME280;46289;51.992;4.498;2023-12-14T00:20:52;101124.56;;;5.33;100.00
60437;BME280;46289;51.992;4.498;2023-12-14T00:22:56;101129.72;;;5.36;100.00
60437;BME280;46289;51.992;4.498;2023-12-14T00:25:01;101126.28;;;5.34;100.00
60437;BME280;46289;51.992;4.498;2023-12-14T00:27:03;101141.91;;;5.35;100.00
60437;BME280;46289;51.992;4.498;2023-12-14T00:29:09;101139.34;;;5.31;100.00
60437;BME280;46289;51.992;4.498;2023-12-14T00:31:14;101144.56;;;5.32;100.00
60437;BME280;46289;51.992;4.498;2023-12-14T00:33:19;101152.53;;;5.20;100.00
60437;BME280;46289;51.992;4.498;2023-12-14T00:35:27;101148.25;;;5.14;100.00
60437;BME280;46289;51.992;4.498;2023-12-14T00:37:32;101154.28;;;5.18;100.00
60437;BME280;46289;51.992;4.498;2023-12-14T00:39:37;101159.50;;;5.18;100.00
60437;BME280;46289;51.992;4.498;2023-12-14T00:41:42;101169.00;;;5.22;100.00
60437;BME280;46289;51.992;4.498;2023-12-14T00:43:47;101169.84;;;5.22;100.00
60437;BME280;46289;51.992;4.498;2023-12-14T00:45:52;101179.47;;;5.17;100.00
60437;BME280;46289;51.992;4.498;2023-12-14T00:47:57;101179.47;;;5.16;100.00
60437;BME280;46289;51.992;4.498;2023-12-14T00:49:59;101190.75;;;5.18;100.00
60437;BME280;46289;51.992;4.498;2023-12-14T00:52:07;101195.16;;;5.14;100.00
60437;BME280;46289;51.992;4.498;2023-12-14T00:54:12;101201.97;;;5.23;100.00
60437;BME280;46289;51.992;4.498;2023-12-14T00:56:17;101198.63;;;5.13;100.00
60437;BME280;46289;51.992;4.498;2023-12-14T00:58:22;101202.13;;;5.12;100.00
60437;BME280;46289;51.992;4.498;2023-12-14T01:00:27;101205.53;;;5.19;100.00
60437;BME280;46289;51.992;4.498;2023-12-14T01:02:33;101212.50;;;5.17;100.00
60437;BME280;46289;51.992;4.498;2023-12-14T01:04:38;101207.19;;;5.23;100.00
60437;BME280;46289;51.992;4.498;2023-12-14T01:06:44;101208.91;;;5.25;100.00
60437;BME280;46289;51.992;4.498;2023-12-14T01:08:48;101214.09;;;5.25;100.00
60437;BME280;46289;51.992;4.498;2023-12-14T01:10:53;101222.88;;;5.18;100.00
60437;BME280;46289;51.992;4.498;2023-12-14T01:12:56;101223.84;;;5.10;100.00
60437;BME280;46289;51.992;4.498;2023-12-14T01:15:01;101232.53;;;5.10;100.00
60437;BME280;46289;51.992;4.498;2023-12-14T01:17:05;101236.91;;;5.06;100.00
60437;BME280;46289;51.992;4.498;2023-12-14T01:19:11;101242.97;;;5.07;100.00
60437;BME280;46289;51.992;4.498;2023-12-14T01:21:13;101239.44;;;5.14;100.00
60437;BME280;46289;51.992;4.498;2023-12-14T01:23:18;101233.47;;;5.06;100.00
60437;BME280;46289;51.992;4.498;2023-12-14T01:25:23;101243.84;;;5.07;100.00
60437;BME280;46289;51.992;4.498;2023-12-14T01:27:28;101241.19;;;5.12;100.00
60437;BME280;46289;51.992;4.498;2023-12-14T01:29:33;101242.03;;;5.14;100.00
60437;BME280;46289;51.992;4.498;2023-12-14T01:31:38;101249.03;;;5.09;100.00
60437;BME280;46289;51.992;4.498;2023-12-14T01:33:43;101255.13;;;5.10;100.00
60437;BME280;46289;51.992;4.498;2023-12-14T01:35:48;101261.22;;;5.07;100.00
60437;BME280;46289;51.992;4.498;2023-12-14T01:37:53;101269.03;;;5.07;100.00
60437;BME280;46289;51.992;4.498;2023-12-14T01:39:58;101267.31;;;5.04;100.00
60437;BME280;46289;51.992;4.498;2023-12-14T01:42:03;101281.28;;;4.97;100.00
60437;BME280;46289;51.992;4.498;2023-12-14T01:44:09;101283.84;;;5.02;100.00
60437;BME280;46289;51.992;4.498;2023-12-14T01:46:14;101299.44;;;5.06;100.00
60437;BME280;46289;51.992;4.498;2023-12-14T01:48:19;101292.63;;;4.92;100.00
60437;BME280;46289;51.992;4.498;2023-12-14T01:50:24;101297.81;;;4.95;100.00
60437;BME280;46289;51.992;4.498;2023-12-14T01:52:29;101303.00;;;4.95;100.00
60437;BME280;46289;51.992;4.498;2023-12-14T01:54:34;101304.75;;;4.96;100.00
60437;BME280;46289;51.992;4.498;2023-12-14T01:56:39;101303.91;;;4.94;100.00
60437;BME280;46289;51.992;4.498;2023-12-14T01:58:47;101309.03;;;5.01;100.00
60437;BME280;46289;51.992;4.498;2023-12-14T02:00:56;101309.03;;;5.01;100.00
60437;BME280;46289;51.992;4.498;2023-12-14T02:03:04;101313.38;;;5.01;100.00
60437;BME280;46289;51.992;4.498;2023-12-14T02:05:10;101322.06;;;5.00;100.00
60437;BME280;46289;51.992;4.498;2023-12-14T02:07:12;101330.81;;;4.96;100.00
60437;BME280;46289;51.992;4.498;2023-12-14T02:09:18;101322.94;;;4.99;100.00
60437;BME280;46289;51.992;4.498;2023-12-14T02:11:23;101328.16;;;5.00;100.00
60437;BME280;46289;51.992;4.498;2023-12-14T02:13:25;101332.44;;;5.06;100.00
60437;BME280;46289;51.992;4.498;2023-12-14T02:15:35;101334.16;;;5.09;100.00
60437;BME280;46289;51.992;4.498;2023-12-14T02:17:40;101341.06;;;5.08;100.00
60437;BME280;46289;51.992;4.498;2023-12-14T02:19:43;101345.47;;;5.06;100.00
60437;BME280;46289;51.992;4.498;2023-12-14T02:21:48;101344.66;;;4.99;100.00
60437;BME280;46289;51.992;4.498;2023-12-14T02:23:52;101342.00;;;5.05;100.00
60437;BME280;46289;51.992;4.498;2023-12-14T02:25:57;101351.56;;;5.02;100.00
60437;BME280;46289;51.992;4.498;2023-12-14T02:28:02;101360.28;;;4.99;100.00
60437;BME280;46289;51.992;4.498;2023-12-14T02:30:06;101368.94;;;5.01;100.00
60437;BME280;46289;51.992;4.498;2023-12-14T02:32:12;101374.19;;;4.97;100.00
60437;BME280;46289;51.992;4.498;2023-12-14T02:34:17;101369.84;;;5.00;100.00
60437;BME280;46289;51.992;4.498;2023-12-14T02:36:19;101371.56;;;4.98;100.00
60437;BME280;46289;51.992;4.498;2023-12-14T02:38:26;101375.88;;;5.04;100.00
60437;BME280;46289;51.992;4.498;2023-12-14T02:40:35;101376.75;;;5.00;100.00
60437;BME280;46289;51.992;4.498;2023-12-14T02:42:40;101381.13;;;4.96;100.00
60437;BME280;46289;51.992;4.498;2023-12-14T02:44:46;101375.03;;;4.97;100.00
60437;BME280;46289;51.992;4.498;2023-12-14T02:46:51;101368.06;;;5.05;100.00
60437;BME280;46289;51.992;4.498;2023-12-14T02:48:53;101375.03;;;4.99;100.00
60437;BME280;46289;51.992;4.498;2023-12-14T02:50:59;101375.97;;;4.92;100.00
60437;BME280;46289;51.992;4.498;2023-12-14T02:53:04;101379.44;;;4.94;100.00
60437;BME280;46289;51.992;4.498;2023-12-14T02:55:09;101377.66;;;5.00;100.00
60437;BME280;46289;51.992;4.498;2023-12-14T02:57:16;101376.81;;;4.95;100.00
60437;BME280;46289;51.992;4.498;2023-12-14T02:59:19;101375.94;;;4.98;100.00
60437;BME280;46289;51.992;4.498;2023-12-14T03:01:24;101381.97;;;5.03;100.00
60437;BME280;46289;51.992;4.498;2023-12-14T03:03:29;101382.84;;;4.99;100.00
60437;BME280;46289;51.992;4.498;2023-12-14T03:05:34;101385.47;;;5.00;100.00
60437;BME280;46289;51.992;4.498;2023-12-14T03:07:39;101394.13;;;4.99;100.00
60437;BME280;46289;51.992;4.498;2023-12-14T03:09:44;101398.50;;;4.96;100.00
60437;BME280;46289;51.992;4.498;2023-12-14T03:11:46;101399.38;;;4.98;100.00
60437;BME280;46289;51.992;4.498;2023-12-14T03:13:54;101401.97;;;4.98;100.00
60437;BME280;46289;51.992;4.498;2023-12-14T03:15:58;101403.69;;;4.99;100.00
60437;BME280;46289;51.992;4.498;2023-12-14T03:18:03;101404.59;;;4.98;100.00
60437;BME280;46289;51.992;4.498;2023-12-14T03:20:10;101403.75;;;4.93;100.00
60437;BME280;46289;51.992;4.498;2023-12-14T03:22:17;101399.41;;;4.93;100.00
60437;BME280;46289;51.992;4.498;2023-12-14T03:24:22;101402.91;;;4.91;100.00
60437;BME280;46289;51.992;4.498;2023-12-14T03:26:27;101408.06;;;4.94;100.00
60437;BME280;46289;51.992;4.498;2023-12-14T03:28:29;101412.47;;;4.87;100.00
60437;BME280;46289;51.992;4.498;2023-12-14T03:30:40;101408.97;;;4.93;100.00
60437;BME280;46289;51.992;4.498;2023-12-14T03:32:46;101410.72;;;4.91;100.00
60437;BME280;46289;51.992;4.498;2023-12-14T03:34:51;101408.94;;;4.96;100.00
60437;BME280;46289;51.992;4.498;2023-12-14T03:36:56;101415.88;;;4.95;100.00
60437;BME280;46289;51.992;4.498;2023-12-14T03:39:01;101420.28;;;4.87;100.00
60437;BME280;46289;51.992;4.498;2023-12-14T03:41:09;101414.19;;;4.88;100.00
60437;BME280;46289;51.992;4.498;2023-12-14T03:43:14;101428.03;;;4.92;100.00
60437;BME280;46289;51.992;4.498;2023-12-14T03:45:19;101423.75;;;4.88;100.00
60437;BME280;46289;51.992;4.498;2023-12-14T03:47:26;101430.75;;;4.79;100.00
60437;BME280;46289;51.992;4.498;2023-12-14T03:49:36;101435.06;;;4.83;100.00
60437;BME280;46289;51.992;4.498;2023-12-14T03:51:42;101436.81;;;4.78;100.00
60437;BME280;46289;51.992;4.498;2023-12-14T03:53:50;101438.59;;;4.75;100.00
60437;BME280;46289;51.992;4.498;2023-12-14T03:55:54;101437.69;;;4.80;100.00
60437;BME280;46289;51.992;4.498;2023-12-14T03:58:00;101440.28;;;4.79;100.00
60437;BME280;46289;51.992;4.498;2023-12-14T04:00:07;101441.19;;;4.78;100.00
60437;BME280;46289;51.992;4.498;2023-12-14T04:02:12;101434.22;;;4.78;100.00
60437;BME280;46289;51.992;4.498;2023-12-14T04:04:20;101443.75;;;4.82;100.00
60437;BME280;46289;51.992;4.498;2023-12-14T04:06:25;101442.91;;;4.82;100.00
60437;BME280;46289;51.992;4.498;2023-12-14T04:08:30;101447.22;;;4.84;100.00
60437;BME280;46289;51.992;4.498;2023-12-14T04:10:35;101455.06;;;4.80;100.00
60437;BME280;46289;51.992;4.498;2023-12-14T04:12:40;101455.03;;;4.84;100.00
60437;BME280;46289;51.992;4.498;2023-12-14T04:14:47;101458.50;;;4.79;100.00
60437;BME280;46289;51.992;4.498;2023-12-14T04:16:51;101465.47;;;4.80;100.00
60437;BME280;46289;51.992;4.498;2023-12-14T04:18:56;101459.38;;;4.82;100.00
60437;BME280;46289;51.992;4.498;2023-12-14T04:21:04;101468.94;;;4.80;100.00
60437;BME280;46289;51.992;4.498;2023-12-14T04:23:09;101464.66;;;4.72;100.00
60437;BME280;46289;51.992;4.498;2023-12-14T04:25:14;101477.66;;;4.73;100.00
60437;BME280;46289;51.992;4.498;2023-12-14T04:27:19;101491.53;;;4.74;100.00
60437;BME280;46289;51.992;4.498;2023-12-14T04:29:26;101495.06;;;4.67;100.00
60437;BME280;46289;51.992;4.498;2023-12-14T04:31:32;101495.91;;;4.70;100.00
60437;BME280;46289;51.992;4.498;2023-12-14T04:33:34;101496.78;;;4.68;100.00
60437;BME280;46289;51.992;4.498;2023-12-14T04:35:40;101504.56;;;4.77;100.00
60437;BME280;46289;51.992;4.498;2023-12-14T04:37:47;101506.31;;;4.72;100.00
60437;BME280;46289;51.992;4.498;2023-12-14T04:39:52;101518.44;;;4.71;100.00
60437;BME280;46289;51.992;4.498;2023-12-14T04:41:57;101525.41;;;4.69;100.00
60437;BME280;46289;51.992;4.498;2023-12-14T04:44:03;101532.34;;;4.70;100.00
60437;BME280;46289;51.992;4.498;2023-12-14T04:46:07;101534.94;;;4.73;100.00
60437;BME280;46289;51.992;4.498;2023-12-14T04:48:12;101535.84;;;4.69;100.00
60437;BME280;46289;51.992;4.498;2023-12-14T04:50:15;101538.44;;;4.69;100.00
60437;BME280;46289;51.992;4.498;2023-12-14T04:52:20;101554.91;;;4.74;100.00
60437;BME280;46289;51.992;4.498;2023-12-14T04:54:27;101561.88;;;4.68;100.00
60437;BME280;46289;51.992;4.498;2023-12-14T04:56:32;101561.88;;;4.63;100.00
60437;BME280;46289;51.992;4.498;2023-12-14T04:58:38;101564.47;;;4.63;100.00
60437;BME280;46289;51.992;4.498;2023-12-14T05:00:43;101570.56;;;4.65;100.00
60437;BME280;46289;51.992;4.498;2023-12-14T05:02:48;101576.63;;;4.69;100.00
60437;BME280;46289;51.992;4.498;2023-12-14T05:04:53;101575.75;;;4.65;100.00
60437;BME280;46289;51.992;4.498;2023-12-14T05:06:57;101582.69;;;4.68;100.00
60437;BME280;46289;51.992;4.498;2023-12-14T05:09:02;101582.69;;;4.63;100.00
60437;BME280;46289;51.992;4.498;2023-12-14T05:11:12;101580.13;;;4.66;100.00
60437;BME280;46289;51.992;4.498;2023-12-14T05:13:17;101587.88;;;4.71;100.00
60437;BME280;46289;51.992;4.498;2023-12-14T05:15:19;101587.03;;;4.66;100.00
60437;BME280;46289;51.992;4.498;2023-12-14T05:17:25;101587.91;;;4.69;100.00
60437;BME280;46289;51.992;4.498;2023-12-14T05:19:32;101599.19;;;4.70;100.00
60437;BME280;46289;51.992;4.498;2023-12-14T05:21:38;101600.06;;;4.69;100.00
60437;BME280;46289;51.992;4.498;2023-12-14T05:23:43;101603.47;;;4.74;100.00
60437;BME280;46289;51.992;4.498;2023-12-14T05:25:48;101600.03;;;4.72;100.00
60437;BME280;46289;51.992;4.498;2023-12-14T05:27:56;101606.06;;;4.78;100.00
60437;BME280;46289;51.992;4.498;2023-12-14T05:30:01;101605.19;;;4.82;100.00
60437;BME280;46289;51.992;4.498;2023-12-14T05:32:05;101606.91;;;4.83;100.00
60437;BME280;46289;51.992;4.498;2023-12-14T05:34:10;101612.13;;;4.88;100.00
60437;BME280;46289;51.992;4.498;2023-12-14T05:36:17;101604.34;;;4.82;100.00
60437;BME280;46289;51.992;4.498;2023-12-14T05:38:23;101600.00;;;4.82;100.00
60437;BME280;46289;51.992;4.498;2023-12-14T05:40:27;101594.81;;;4.78;100.00
60437;BME280;46289;51.992;4.498;2023-12-14T05:42:33;101603.47;;;4.78;100.00
60437;BME280;46289;51.992;4.498;2023-12-14T05:44:38;101600.84;;;4.81;100.00
60437;BME280;46289;51.992;4.498;2023-12-14T05:46:43;101614.75;;;4.79;100.00
60437;BME280;46289;51.992;4.498;2023-12-14T05:48:48;101617.38;;;4.76;100.00
60437;BME280;46289;51.992;4.498;2023-12-14T05:50:51;101624.31;;;4.77;100.00
60437;BME280;46289;51.992;4.498;2023-12-14T05:52:56;101625.19;;;4.73;100.00
60437;BME280;46289;51.992;4.498;2023-12-14T05:55:01;101632.13;;;4.77;100.00
60437;BME280;46289;51.992;4.498;2023-12-14T05:57:06;101633.88;;;4.73;100.00
60437;BME280;46289;51.992;4.498;2023-12-14T05:59:15;101646.88;;;4.76;100.00
60437;BME280;46289;51.992;4.498;2023-12-14T06:01:23;101659.06;;;4.74;100.00
60437;BME280;46289;51.992;4.498;2023-12-14T06:03:28;101654.72;;;4.72;100.00
60437;BME280;46289;51.992;4.498;2023-12-14T06:05:33;101652.13;;;4.62;100.00
60437;BME280;46289;51.992;4.498;2023-12-14T06:07:39;101650.38;;;4.63;100.00
60437;BME280;46289;51.992;4.498;2023-12-14T06:09:44;101655.63;;;4.54;100.00
60437;BME280;46289;51.992;4.498;2023-12-14T06:11:49;101659.09;;;4.56;100.00
60437;BME280;46289;51.992;4.498;2023-12-14T06:13:54;101661.69;;;4.53;100.00
60437;BME280;46289;51.992;4.498;2023-12-14T06:15:59;101668.63;;;4.55;100.00
60437;BME280;46289;51.992;4.498;2023-12-14T06:18:07;101667.78;;;4.52;100.00
60437;BME280;46289;51.992;4.498;2023-12-14T06:20:13;101675.59;;;4.47;100.00
60437;BME280;46289;51.992;4.498;2023-12-14T06:22:18;101682.53;;;4.47;100.00
60437;BME280;46289;51.992;4.498;2023-12-14T06:24:23;101690.34;;;4.40;100.00
60437;BME280;46289;51.992;4.498;2023-12-14T06:26:28;101696.44;;;4.41;100.00
60437;BME280;46289;51.992;4.498;2023-12-14T06:28:33;101711.16;;;4.34;100.00
60437;BME280;46289;51.992;4.498;2023-12-14T06:30:38;101718.97;;;4.36;100.00
60437;BME280;46289;51.992;4.498;2023-12-14T06:32:40;101725.06;;;4.33;100.00
60437;BME280;46289;51.992;4.498;2023-12-14T06:34:48;101721.59;;;4.28;100.00
60437;BME280;46289;51.992;4.498;2023-12-14T06:36:53;101718.13;;;4.23;100.00
60437;BME280;46289;51.992;4.498;2023-12-14T06:39:01;101730.25;;;4.23;100.00
60437;BME280;46289;51.992;4.498;2023-12-14T06:41:07;101735.44;;;4.21;100.00
60437;BME280;46289;51.992;4.498;2023-12-14T06:43:12;101730.25;;;4.21;100.00
60437;BME280;46289;51.992;4.498;2023-12-14T06:45:17;101743.25;;;4.21;100.00
60437;BME280;46289;51.992;4.498;2023-12-14T06:47:22;101750.19;;;4.17;100.00
60437;BME280;46289;51.992;4.498;2023-12-14T06:49:27;101748.47;;;4.13;100.00
60437;BME280;46289;51.992;4.498;2023-12-14T06:51:32;101748.47;;;4.09;100.00
60437;BME280;46289;51.992;4.498;2023-12-14T06:53:40;101753.66;;;4.03;100.00
60437;BME280;46289;51.992;4.498;2023-12-14T06:55:45;101757.13;;;4.02;100.00
60437;BME280;46289;51.992;4.498;2023-12-14T06:57:50;101752.78;;;4.02;100.00
60437;BME280;46289;51.992;4.498;2023-12-14T06:59:58;101763.19;;;3.99;100.00
60437;BME280;46289;51.992;4.498;2023-12-14T07:02:03;101765.81;;;4.04;100.00
60437;BME280;46289;51.992;4.498;2023-12-14T07:04:09;101771.88;;;3.98;100.00
60437;BME280;46289;51.992;4.498;2023-12-14T07:06:18;101770.97;;;3.87;100.00
60437;BME280;46289;51.992;4.498;2023-12-14T07:08:26;101771.84;;;3.87;100.00
60437;BME280;46289;51.992;4.498;2023-12-14T07:10:31;101774.44;;;3.86;100.00
60437;BME280;46289;51.992;4.498;2023-12-14T07:12:34;101772.72;;;3.85;100.00
60437;BME280;46289;51.992;4.498;2023-12-14T07:14:39;101781.38;;;3.82;100.00
60437;BME280;46289;51.992;4.498;2023-12-14T07:16:42;101782.22;;;3.81;100.00
60437;BME280;46289;51.992;4.498;2023-12-14T07:18:48;101785.69;;;3.86;100.00
60437;BME280;46289;51.992;4.498;2023-12-14T07:20:50;101795.22;;;3.80;100.00
60437;BME280;46289;51.992;4.498;2023-12-14T07:22:55;101809.09;;;3.77;100.00
60437;BME280;46289;51.992;4.498;2023-12-14T07:25:03;101800.38;;;3.70;100.00
60437;BME280;46289;51.992;4.498;2023-12-14T07:27:08;101804.72;;;3.73;100.00
60437;BME280;46289;51.992;4.498;2023-12-14T07:29:13;101814.25;;;3.69;100.00
60437;BME280;46289;51.992;4.498;2023-12-14T07:31:18;101819.44;;;3.66;100.00
60437;BME280;46289;51.992;4.498;2023-12-14T07:33:23;101816.81;;;3.56;100.00
60437;BME280;46289;51.992;4.498;2023-12-14T07:35:28;101815.03;;;3.51;100.00
60437;BME280;46289;51.992;4.498;2023-12-14T07:37:33;101816.78;;;3.54;100.00
60437;BME280;46289;51.992;4.498;2023-12-14T07:39:35;101813.31;;;3.50;100.00
60437;BME280;46289;51.992;4.498;2023-12-14T07:41:43;101818.47;;;3.41;100.00
60437;BME280;46289;51.992;4.498;2023-12-14T07:43:48;101820.25;;;3.51;100.00
60437;BME280;46289;51.992;4.498;2023-12-14T07:45:53;101815.91;;;3.46;100.00
60437;BME280;46289;51.992;4.498;2023-12-14T07:47:58;101816.69;;;3.34;100.00
60437;BME280;46289;51.992;4.498;2023-12-14T07:50:04;101814.91;;;3.25;100.00
60437;BME280;46289;51.992;4.498;2023-12-14T07:52:10;101807.97;;;3.20;100.00
60437;BME280;46289;51.992;4.498;2023-12-14T07:54:18;101811.38;;;3.16;100.00
60437;BME280;46289;51.992;4.498;2023-12-14T07:56:20;101813.97;;;3.10;100.00
60437;BME280;46289;51.992;4.498;2023-12-14T07:58:30;101819.13;;;3.05;100.00
60437;BME280;46289;51.992;4.498;2023-12-14T08:00:35;101823.44;;;2.98;100.00
60437;BME280;46289;51.992;4.498;2023-12-14T08:02:40;101829.44;;;2.93;100.00
60437;BME280;46289;51.992;4.498;2023-12-14T08:04:45;101835.50;;;2.93;100.00
60437;BME280;46289;51.992;4.498;2023-12-14T08:06:50;101835.47;;;2.89;100.00
60437;BME280;46289;51.992;4.498;2023-12-14T08:08:57;101844.97;;;2.86;100.00
60437;BME280;46289;51.992;4.498;2023-12-14T08:11:03;101857.94;;;2.86;100.00
60437;BME280;46289;51.992;4.498;2023-12-14T08:13:08;101863.13;;;2.85;100.00
60437;BME280;46289;51.992;4.498;2023-12-14T08:15:16;101859.63;;;2.81;100.00
60437;BME280;46289;51.992;4.498;2023-12-14T08:17:22;101869.19;;;2.82;100.00
60437;BME280;46289;51.992;4.498;2023-12-14T08:19:27;101875.22;;;2.83;100.00
60437;BME280;46289;51.992;4.498;2023-12-14T08:21:32;101866.56;;;2.84;100.00
60437;BME280;46289;51.992;4.498;2023-12-14T08:23:38;101880.47;;;2.88;100.00
60437;BME280;46289;51.992;4.498;2023-12-14T08:25:43;101888.22;;;2.86;100.00
60437;BME280;46289;51.992;4.498;2023-12-14T08:27:48;101886.50;;;2.90;100.00
60437;BME280;46289;51.992;4.498;2023-12-14T08:29:53;101893.47;;;2.94;100.00
60437;BME280;46289;51.992;4.498;2023-12-14T08:32:00;101902.16;;;2.97;100.00
60437;BME280;46289;51.992;4.498;2023-12-14T08:34:05;101906.53;;;3.01;100.00
60437;BME280;46289;51.992;4.498;2023-12-14T08:36:15;101912.63;;;3.08;100.00
60437;BME280;46289;51.992;4.498;2023-12-14T08:38:20;101920.47;;;3.13;100.00
60437;BME280;46289;51.992;4.498;2023-12-14T08:40:25;101925.72;;;3.20;100.00
60437;BME280;46289;51.992;4.498;2023-12-14T08:42:30;101930.06;;;3.26;100.00
60437;BME280;46289;51.992;4.498;2023-12-14T08:44:38;101928.38;;;3.31;100.00
60437;BME280;46289;51.992;4.498;2023-12-14T08:46:44;101925.84;;;3.39;100.00
60437;BME280;46289;51.992;4.498;2023-12-14T08:48:53;101928.50;;;3.46;100.00
60437;BME280;46289;51.992;4.498;2023-12-14T08:50:58;101932.00;;;3.55;100.00
60437;BME280;46289;51.992;4.498;2023-12-14T08:53:02;101934.66;;;3.64;100.00
60437;BME280;46289;51.992;4.498;2023-12-14T08:55:09;101935.56;;;3.69;100.00
60437;BME280;46289;51.992;4.498;2023-12-14T08:57:14;101936.47;;;3.74;100.00
60437;BME280;46289;51.992;4.498;2023-12-14T08:59:19;101939.09;;;3.80;100.00
60437;BME280;46289;51.992;4.498;2023-12-14T09:01:23;101947.78;;;3.87;100.00
60437;BME280;46289;51.992;4.498;2023-12-14T09:03:28;101940.88;;;3.90;100.00
60437;BME280;46289;51.992;4.498;2023-12-14T09:05:36;101940.91;;;3.95;100.00
60437;BME280;46289;51.992;4.498;2023-12-14T09:07:44;101949.56;;;3.99;100.00
60437;BME280;46289;51.992;4.498;2023-12-14T09:09:49;101946.97;;;4.02;100.00
60437;BME280;46289;51.992;4.498;2023-12-14T09:11:53;101951.31;;;4.01;100.00
60437;BME280;46289;51.992;4.498;2023-12-14T09:13:58;101953.94;;;4.04;100.00
60437;BME280;46289;51.992;4.498;2023-12-14T09:16:05;101958.28;;;4.10;100.00
60437;BME280;46289;51.992;4.498;2023-12-14T09:18:09;101959.19;;;4.13;100.00
60437;BME280;46289;51.992;4.498;2023-12-14T09:20:14;101960.03;;;4.15;100.00
60437;BME280;46289;51.992;4.498;2023-12-14T09:22:22;101958.31;;;4.17;100.00
60437;BME280;46289;51.992;4.498;2023-12-14T09:24:24;101959.19;;;4.21;100.00
60437;BME280;46289;51.992;4.498;2023-12-14T09:26:30;101964.44;;;4.27;100.00
60437;BME280;46289;51.992;4.498;2023-12-14T09:28:35;101967.03;;;4.26;100.00
60437;BME280;46289;51.992;4.498;2023-12-14T09:30:40;101969.66;;;4.32;100.00
60437;BME280;46289;51.992;4.498;2023-12-14T09:32:49;101982.66;;;4.30;100.00
60437;BME280;46289;51.992;4.498;2023-12-14T09:34:54;101981.78;;;4.28;100.00
60437;BME280;46289;51.992;4.498;2023-12-14T09:37:02;101983.53;;;4.29;100.00
60437;BME280;46289;51.992;4.498;2023-12-14T09:39:10;101989.56;;;4.28;100.00
60437;BME280;46289;51.992;4.498;2023-12-14T09:41:17;101995.66;;;4.30;100.00
60437;BME280;46289;51.992;4.498;2023-12-14T09:43:22;102001.75;;;4.34;100.00
60437;BME280;46289;51.992;4.498;2023-12-14T09:45:28;102013.91;;;4.35;100.00
60437;BME280;46289;51.992;4.498;2023-12-14T09:47:33;102005.22;;;4.36;100.00
60437;BME280;46289;51.992;4.498;2023-12-14T09:49:41;102014.78;;;4.42;100.00
60437;BME280;46289;51.992;4.498;2023-12-14T09:51:46;102015.69;;;4.45;100.00
60437;BME280;46289;51.992;4.498;2023-12-14T09:53:51;102015.66;;;4.42;100.00
60437;BME280;46289;51.992;4.498;2023-12-14T09:56:05;102018.28;;;4.45;100.00
60437;BME280;46289;51.992;4.498;2023-12-14T09:58:10;102010.50;;;4.51;100.00
60437;BME280;46289;51.992;4.498;2023-12-14T10:00:32;102015.72;;;4.56;100.00
60437;BME280;46289;51.992;4.498;2023-12-14T10:02:35;102015.72;;;4.56;100.00
60437;BME280;46289;51.992;4.498;2023-12-14T10:04:40;102023.53;;;4.62;100.00
60437;BME280;46289;51.992;4.498;2023-12-14T10:06:48;102013.16;;;4.67;100.00
60437;BME280;46289;51.992;4.498;2023-12-14T10:08:54;102020.09;;;4.74;100.00
60437;BME280;46289;51.992;4.498;2023-12-14T10:11:00;102025.34;;;4.77;100.00
60437;BME280;46289;51.992;4.498;2023-12-14T10:13:08;102028.81;;;4.82;100.00
60437;BME280;46289;51.992;4.498;2023-12-14T10:15:17;102029.69;;;4.87;100.00
60437;BME280;46289;51.992;4.498;2023-12-14T10:17:26;102030.53;;;4.92;100.00
60437;BME280;46289;51.992;4.498;2023-12-14T10:19:35;102030.56;;;5.01;100.00
60437;BME280;46289;51.992;4.498;2023-12-14T10:21:40;102032.31;;;5.07;100.00
60437;BME280;46289;51.992;4.498;2023-12-14T10:23:45;102024.53;;;5.12;100.00
60437;BME280;46289;51.992;4.498;2023-12-14T10:25:48;102021.06;;;5.22;100.00
60437;BME280;46289;51.992;4.498;2023-12-14T10:27:53;102024.50;;;5.28;100.00
60437;BME280;46289;51.992;4.498;2023-12-14T10:29:58;102029.72;;;5.32;100.00
60437;BME280;46289;51.992;4.498;2023-12-14T10:32:04;102023.66;;;5.33;100.00
60437;BME280;46289;51.992;4.498;2023-12-14T10:34:10;102029.72;;;5.39;100.00
60437;BME280;46289;51.992;4.498;2023-12-14T10:36:19;102032.34;;;5.45;100.00
60437;BME280;46289;51.992;4.498;2023-12-14T10:38:23;102029.72;;;5.47;100.00
60437;BME280;46289;51.992;4.498;2023-12-14T10:40:31;102034.09;;;5.56;100.00
60437;BME280;46289;51.992;4.498;2023-12-14T10:42:39;102031.47;;;5.66;100.00
60437;BME280;46289;51.992;4.498;2023-12-14T10:44:51;102041.00;;;5.70;100.00
60437;BME280;46289;51.992;4.498;2023-12-14T10:47:21;102045.34;;;5.68;100.00
60437;BME280;46289;51.992;4.498;2023-12-14T10:49:27;102047.13;;;5.66;100.00
60437;BME280;46289;51.992;4.498;2023-12-14T10:51:34;102051.44;;;5.73;100.00
60437;BME280;46289;51.992;4.498;2023-12-14T10:53:48;102058.41;;;5.62;100.00
60437;BME280;46289;51.992;4.498;2023-12-14T10:55:54;102066.25;;;5.45;100.00